Time;durP1;ratioP1;P1;durP2;ratioP2;P2;SDS_P1;SDS_P2;PMS_P1;PMS_P2;Temp;Humidity;BMP_temperature;BMP_pressure;BME280_temperature;BME280_humidity;BME280_pressure;Samples;Min_cycle;Max_cycle;Signal;HPM_P1;HPM_P2
2021/06/22 00:01:11;;;;;;;4.05;1.92;;;;;;;;;;4955884;29;20098;-81
2021/06/22 00:03:37;;;;;;;6.65;2.25;;;;;;;;;;4955872;29;20034;-81
2021/06/22 00:06:03;;;;;;;5.28;2.63;;;;;;;;;;4956566;29;20027;-79
2021/06/22 00:08:30;;;;;;;4.90;2.58;;;;;;;;;;4938672;29;20111;-82
2021/06/22 00:10:56;;;;;;;5.78;2.63;;;;;;;;;;4938535;29;20546;-81
2021/06/22 00:13:23;;;;;;;5.88;2.15;;;;;;;;;;4956305;29;20492;-81
2021/06/22 00:15:49;;;;;;;14.35;2.33;;;;;;;;;;4938628;29;20110;-81
2021/06/22 00:18:15;;;;;;;7.15;3.13;;;;;;;;;;4956140;29;20031;-81
2021/06/22 00:20:42;;;;;;;7.40;2.70;;;;;;;;;;4938480;29;20023;-82
2021/06/22 00:23:08;;;;;;;5.53;2.50;;;;;;;;;;4955658;29;20499;-79
2021/06/22 00:25:34;;;;;;;6.82;2.17;;;;;;;;;;4938274;29;20094;-82
2021/06/22 00:28:01;;;;;;;5.10;2.30;;;;;;;;;;4956066;29;20368;-82
2021/06/22 00:30:27;;;;;;;8.07;2.60;;;;;;;;;;4955662;29;20081;-82
2021/06/22 00:32:53;;;;;;;5.65;2.20;;;;;;;;;;4955584;29;20499;-81
2021/06/22 00:35:20;;;;;;;5.55;2.65;;;;;;;;;;4955527;29;20027;-82
2021/06/22 00:37:47;;;;;;;8.57;2.55;;;;;;;;;;4955814;29;20043;-82
2021/06/22 00:40:15;;;;;;;6.68;2.35;;;;;;;;;;4938248;29;20499;-81
2021/06/22 00:42:41;;;;;;;8.23;2.50;;;;;;;;;;4938313;29;20027;-81
2021/06/22 00:45:08;;;;;;;10.00;2.88;;;;;;;;;;4938238;29;20110;-80
2021/06/22 00:47:34;;;;;;;5.13;2.58;;;;;;;;;;4938092;29;20036;-81
2021/06/22 00:50:00;;;;;;;6.40;2.80;;;;;;;;;;4955444;29;20027;-81
2021/06/22 00:52:28;;;;;;;5.78;2.60;;;;;;;;;;4938768;29;20050;-81
2021/06/22 00:54:55;;;;;;;4.97;2.47;;;;;;;;;;4960027;29;20039;-81
2021/06/22 00:57:21;;;;;;;5.80;2.33;;;;;;;;;;4942202;29;20031;-81
2021/06/22 00:59:48;;;;;;;7.68;2.78;;;;;;;;;;4959713;29;20400;-81
2021/06/22 01:02:16;;;;;;;8.02;1.98;;;;;;;;;;4942022;29;20064;-81
2021/06/22 01:04:42;;;;;;;6.90;2.70;;;;;;;;;;4959180;29;20027;-81
2021/06/22 01:07:10;;;;;;;7.18;3.15;;;;;;;;;;4959661;29;20078;-80
2021/06/22 01:09:36;;;;;;;7.18;3.22;;;;;;;;;;4959579;29;20126;-80
2021/06/22 01:12:03;;;;;;;6.70;2.90;;;;;;;;;;4941730;29;20057;-80
2021/06/22 01:14:29;;;;;;;9.95;2.83;;;;;;;;;;4941587;29;20039;-80
2021/06/22 01:16:55;;;;;;;5.22;2.60;;;;;;;;;;4941781;29;20480;-81
2021/06/22 01:19:22;;;;;;;8.50;2.58;;;;;;;;;;4958794;29;20035;-81
2021/06/22 01:21:48;;;;;;;8.02;3.00;;;;;;;;;;4958818;29;20481;-80
2021/06/22 01:24:18;;;;;;;6.43;2.67;;;;;;;;;;4941602;29;20510;-81
2021/06/22 01:26:57;;;;;;;5.97;2.70;;;;;;;;;;4941657;29;20440;-80
2021/06/22 01:29:23;;;;;;;8.98;3.08;;;;;;;;;;4941496;29;20028;-81
2021/06/22 01:31:50;;;;;;;9.85;3.05;;;;;;;;;;4941496;29;20380;-81
2021/06/22 01:34:20;;;;;;;8.93;2.67;;;;;;;;;;4958471;29;20042;-79
2021/06/22 01:36:47;;;;;;;12.30;2.75;;;;;;;;;;4941471;29;20547;-80
2021/06/22 01:39:14;;;;;;;6.57;2.75;;;;;;;;;;4958342;29;20051;-81
2021/06/22 01:41:41;;;;;;;7.47;3.17;;;;;;;;;;4941231;29;20031;-79
2021/06/22 01:44:07;;;;;;;9.18;2.95;;;;;;;;;;4941136;29;20038;-80
2021/06/22 01:46:33;;;;;;;9.32;2.78;;;;;;;;;;4941114;29;20026;-80
2021/06/22 01:48:59;;;;;;;7.65;2.85;;;;;;;;;;4958486;29;20027;-81
2021/06/22 01:51:26;;;;;;;5.97;2.78;;;;;;;;;;4941153;29;20031;-82
2021/06/22 01:53:59;;;;;;;5.53;2.83;;;;;;;;;;4958719;29;20362;-80
2021/06/22 01:56:25;;;;;;;;;;;;;;;;;;4958584;29;20495;-80
2021/06/22 01:58:52;;;;;;;6.45;3.33;;;;;;;;;;4941038;29;19907;-81
2021/06/22 02:01:18;;;;;;;6.47;3.28;;;;;;;;;;4941051;29;20031;-81
2021/06/22 02:03:45;;;;;;;11.02;3.50;;;;;;;;;;4940502;28;20047;-81
2021/06/22 02:06:12;;;;;;;6.45;3.25;;;;;;;;;;4940405;29;20058;-82
2021/06/22 02:08:38;;;;;;;8.27;3.60;;;;;;;;;;4958027;29;20114;-81
2021/06/22 02:11:05;;;;;;;8.13;3.80;;;;;;;;;;4957949;29;20175;-81
2021/06/22 02:13:31;;;;;;;7.78;3.78;;;;;;;;;;4940735;29;20130;-82
2021/06/22 02:15:58;;;;;;;9.60;3.38;;;;;;;;;;4957886;29;20377;-81
2021/06/22 02:18:25;;;;;;;3.83;2.75;;;;;;;;;;4958402;29;20429;-80
2021/06/22 02:20:52;;;;;;;6.13;3.42;;;;;;;;;;4940511;29;20050;-82
2021/06/22 02:23:18;;;;;;;9.93;4.20;;;;;;;;;;4958356;29;20039;-82
2021/06/22 02:25:45;;;;;;;7.35;3.15;;;;;;;;;;4957671;29;20089;-81
2021/06/22 02:28:13;;;;;;;10.40;3.88;;;;;;;;;;4957601;29;20046;-82
2021/06/22 02:30:40;;;;;;;6.90;3.47;;;;;;;;;;4940323;29;20035;-81
2021/06/22 02:33:06;;;;;;;5.65;3.50;;;;;;;;;;4957631;29;20381;-81
2021/06/22 02:35:33;;;;;;;6.13;3.78;;;;;;;;;;4957511;29;20165;-82
2021/06/22 02:38:00;;;;;;;6.53;3.28;;;;;;;;;;4957212;29;20066;-81
2021/06/22 02:40:26;;;;;;;6.45;3.42;;;;;;;;;;4940227;29;20046;-81
2021/06/22 02:42:53;;;;;;;5.97;3.35;;;;;;;;;;4957502;29;20035;-79
2021/06/22 02:45:19;;;;;;;5.88;3.45;;;;;;;;;;4957425;29;20469;-79
2021/06/22 02:47:45;;;;;;;8.98;3.78;;;;;;;;;;4957211;29;20477;-81
2021/06/22 02:50:13;;;;;;;10.23;4.20;;;;;;;;;;4957280;29;20484;-80
2021/06/22 02:52:39;;;;;;;7.25;3.67;;;;;;;;;;4939914;29;20473;-80
2021/06/22 02:55:06;;;;;;;6.30;3.22;;;;;;;;;;4939881;29;20091;-81
2021/06/22 02:57:32;;;;;;;8.75;3.78;;;;;;;;;;4957091;29;20034;-80
2021/06/22 02:59:58;;;;;;;9.70;3.83;;;;;;;;;;4939827;29;20031;-79
2021/06/22 03:02:25;;;;;;;6.05;3.22;;;;;;;;;;4957057;29;20078;-82
2021/06/22 03:04:51;;;;;;;8.95;3.67;;;;;;;;;;4957405;29;20035;-81
2021/06/22 03:07:17;;;;;;;7.53;4.05;;;;;;;;;;4939780;29;20023;-79
2021/06/22 03:09:43;;;;;;;9.73;3.58;;;;;;;;;;4939620;29;20449;-81
2021/06/22 03:12:10;;;;;;;12.18;3.35;;;;;;;;;;4956953;29;20030;-82
2021/06/22 03:14:36;;;;;;;6.18;3.30;;;;;;;;;;4939530;29;20039;-80
2021/06/22 03:17:02;;;;;;;7.07;3.75;;;;;;;;;;4938682;29;20030;-81
2021/06/22 03:19:29;;;;;;;10.45;3.53;;;;;;;;;;4956727;29;20036;-81
2021/06/22 03:21:55;;;;;;;9.73;3.85;;;;;;;;;;4957521;29;20023;-82
2021/06/22 03:24:22;;;;;;;6.82;3.58;;;;;;;;;;4957187;29;20052;-81
2021/06/22 03:26:48;;;;;;;7.68;3.65;;;;;;;;;;4939223;29;20077;-82
2021/06/22 03:29:15;;;;;;;9.02;3.80;;;;;;;;;;4939251;29;20059;-81
2021/06/22 03:31:41;;;;;;;10.55;3.42;;;;;;;;;;4939073;29;20400;-81
2021/06/22 03:34:07;;;;;;;20.17;3.70;;;;;;;;;;4956325;29;20062;-80
2021/06/22 03:36:34;;;;;;;8.05;3.53;;;;;;;;;;4939160;29;20126;-80
2021/06/22 03:39:00;;;;;;;10.55;3.80;;;;;;;;;;4956292;29;20062;-81
2021/06/22 03:41:27;;;;;;;7.78;3.33;;;;;;;;;;4956403;29;20091;-81
2021/06/22 03:43:53;;;;;;;4.88;3.10;;;;;;;;;;4956196;29;20029;-81
2021/06/22 03:46:19;;;;;;;8.05;3.42;;;;;;;;;;4956309;29;20094;-81
2021/06/22 03:48:46;;;;;;;7.43;3.55;;;;;;;;;;4938865;29;20392;-81
2021/06/22 03:51:13;;;;;;;11.68;3.38;;;;;;;;;;4938857;29;20113;-81
2021/06/22 03:53:41;;;;;;;7.68;3.13;;;;;;;;;;4955957;29;20039;-82
2021/06/22 03:56:08;;;;;;;10.35;3.53;;;;;;;;;;4938907;29;20023;-82
2021/06/22 03:58:34;;;;;;;5.63;3.17;;;;;;;;;;4956052;29;20067;-81
2021/06/22 04:01:01;;;;;;;4.88;3.05;;;;;;;;;;4938878;29;20031;-81
2021/06/22 04:03:27;;;;;;;7.55;3.05;;;;;;;;;;4938765;29;20031;-82
2021/06/22 04:05:53;;;;;;;16.08;3.83;;;;;;;;;;4955919;29;20027;-80
2021/06/22 04:08:19;;;;;;;8.10;3.08;;;;;;;;;;4955932;29;20464;-80
2021/06/22 04:10:46;;;;;;;5.05;2.95;;;;;;;;;;4938646;29;20111;-80
2021/06/22 04:13:12;;;;;;;7.10;3.00;;;;;;;;;;4938600;29;20039;-81
2021/06/22 04:15:39;;;;;;;7.68;2.72;;;;;;;;;;4956248;29;20028;-82
2021/06/22 04:18:06;;;;;;;8.52;2.55;;;;;;;;;;4938609;29;20023;-81
2021/06/22 04:20:33;;;;;;;5.25;2.17;;;;;;;;;;4956250;29;20031;-81
2021/06/22 04:22:59;;;;;;;6.20;2.25;;;;;;;;;;4938545;29;20037;-82
2021/06/22 04:25:25;;;;;;;9.43;2.40;;;;;;;;;;4955783;29;20477;-82
2021/06/22 04:27:52;;;;;;;4.38;2.25;;;;;;;;;;4955347;28;20027;-77
2021/06/22 04:30:19;;;;;;;6.72;2.45;;;;;;;;;;4955737;29;20102;-80
2021/06/22 04:32:45;;;;;;;4.47;2.40;;;;;;;;;;4955991;29;20027;-80
2021/06/22 04:35:12;;;;;;;5.97;2.38;;;;;;;;;;4956099;29;20020;-80
2021/06/22 04:37:40;;;;;;;4.57;1.98;;;;;;;;;;4938240;29;20059;-81
2021/06/22 04:40:06;;;;;;;4.60;2.35;;;;;;;;;;4955981;29;20027;-81
2021/06/22 04:42:32;;;;;;;8.15;2.13;;;;;;;;;;4938306;29;20110;-80
2021/06/22 04:44:59;;;;;;;12.25;2.47;;;;;;;;;;4938227;29;20592;-80
2021/06/22 04:47:25;;;;;;;5.75;2.22;;;;;;;;;;4938237;29;20122;-80
2021/06/22 04:49:51;;;;;;;4.03;2.25;;;;;;;;;;4938203;29;20054;-81
2021/06/22 04:52:17;;;;;;;6.57;2.20;;;;;;;;;;4955409;29;20024;-80
2021/06/22 04:54:43;;;;;;;3.90;2.15;;;;;;;;;;4955765;29;20039;-81
2021/06/22 04:57:12;;;;;;;5.97;2.10;;;;;;;;;;4938094;29;20473;-82
2021/06/22 04:59:38;;;;;;;6.60;2.20;;;;;;;;;;4955240;29;20054;-81
2021/06/22 05:02:04;;;;;;;3.47;1.90;;;;;;;;;;4938121;29;20032;-80
2021/06/22 05:04:31;;;;;;;3.72;1.77;;;;;;;;;;4938076;29;20034;-82
2021/06/22 05:06:58;;;;;;;4.82;2.55;;;;;;;;;;4937942;29;20074;-81
2021/06/22 05:09:24;;;;;;;7.22;2.38;;;;;;;;;;4949650;29;20038;-82
2021/06/22 05:11:50;;;;;;;10.40;2.33;;;;;;;;;;4937654;29;20031;-82
2021/06/22 05:14:16;;;;;;;2.90;1.75;;;;;;;;;;4937766;29;20409;-80
2021/06/22 05:16:43;;;;;;;13.15;2.25;;;;;;;;;;4954707;29;20087;-81
2021/06/22 05:19:09;;;;;;;6.40;2.63;;;;;;;;;;4937714;29;20058;-80
2021/06/22 05:21:35;;;;;;;4.60;2.50;;;;;;;;;;4937690;29;20546;-81
2021/06/22 05:24:01;;;;;;;7.40;2.10;;;;;;;;;;4954846;29;20058;-80
2021/06/22 05:26:27;;;;;;;5.03;2.13;;;;;;;;;;4939316;29;20019;-80
2021/06/22 05:28:53;;;;;;;5.82;2.20;;;;;;;;;;4938256;29;20046;-80
2021/06/22 05:31:19;;;;;;;13.00;2.30;;;;;;;;;;4937768;29;20026;-80
2021/06/22 05:33:45;;;;;;;6.57;2.25;;;;;;;;;;4937526;29;20063;-81
2021/06/22 05:36:11;;;;;;;4.65;2.35;;;;;;;;;;4954713;29;20023;-82
2021/06/22 05:38:38;;;;;;;4.93;1.90;;;;;;;;;;4937358;28;20061;-81
2021/06/22 05:41:04;;;;;;;4.80;1.88;;;;;;;;;;4940408;29;20388;-80
2021/06/22 05:43:30;;;;;;;4.28;1.77;;;;;;;;;;4958322;29;20057;-78
2021/06/22 05:45:56;;;;;;;5.22;2.00;;;;;;;;;;4940956;29;20030;-80
2021/06/22 05:48:22;;;;;;;4.45;1.63;;;;;;;;;;4941012;29;20031;-80
2021/06/22 05:50:49;;;;;;;3.38;1.80;;;;;;;;;;4958149;29;20023;-80
2021/06/22 05:53:15;;;;;;;6.30;1.90;;;;;;;;;;4940805;29;20515;-80
2021/06/22 05:55:41;;;;;;;9.05;2.20;;;;;;;;;;4958076;29;20155;-80
2021/06/22 05:58:07;;;;;;;8.02;2.13;;;;;;;;;;4957998;29;20024;-81
2021/06/22 06:00:34;;;;;;;8.43;2.10;;;;;;;;;;4957987;29;20150;-80
2021/06/22 06:03:00;;;;;;;4.38;1.70;;;;;;;;;;4940600;29;20452;-79
2021/06/22 06:05:26;;;;;;;10.25;2.03;;;;;;;;;;4940630;29;20023;-80
2021/06/22 06:07:53;;;;;;;3.67;1.88;;;;;;;;;;4940573;29;20043;-80
2021/06/22 06:10:19;;;;;;;7.88;2.10;;;;;;;;;;4940497;29;20480;-80
2021/06/22 06:12:46;;;;;;;4.43;1.90;;;;;;;;;;4957522;29;20110;-80
2021/06/22 06:15:13;;;;;;;5.55;1.70;;;;;;;;;;4940422;29;20031;-80
2021/06/22 06:17:40;;;;;;;6.43;2.20;;;;;;;;;;4957623;29;20019;-80
2021/06/22 06:20:08;;;;;;;4.95;2.10;;;;;;;;;;4940326;29;20489;-79
2021/06/22 06:22:34;;;;;;;11.55;2.30;;;;;;;;;;4940282;29;20020;-81
2021/06/22 06:25:03;;;;;;;6.05;2.15;;;;;;;;;;4957362;29;20035;-80
2021/06/22 06:27:45;;;;;;;7.38;2.13;;;;;;;;;;4957410;29;20050;-79
2021/06/22 06:30:15;;;;;;;5.20;2.03;;;;;;;;;;4940527;29;20038;-79
2021/06/22 06:32:41;;;;;;;9.10;2.47;;;;;;;;;;4957204;29;20070;-79
2021/06/22 06:35:07;;;;;;;4.32;2.08;;;;;;;;;;4940031;29;20085;-81
2021/06/22 06:37:34;;;;;;;3.70;2.03;;;;;;;;;;4939897;29;20511;-79
2021/06/22 06:40:00;;;;;;;5.47;2.30;;;;;;;;;;4940155;29;20019;-78
2021/06/22 06:42:26;;;;;;;5.22;2.20;;;;;;;;;;4957295;29;20023;-78
2021/06/22 06:44:52;;;;;;;8.15;2.42;;;;;;;;;;4939716;29;20035;-77
2021/06/22 06:47:19;;;;;;;5.20;2.10;;;;;;;;;;4939029;29;20034;-79
2021/06/22 06:49:45;;;;;;;4.88;2.17;;;;;;;;;;4939499;29;20106;-78
2021/06/22 06:52:12;;;;;;;9.45;1.83;;;;;;;;;;4939826;29;20067;-82
2021/06/22 06:54:38;;;;;;;4.78;2.00;;;;;;;;;;4957796;29;20039;-81
2021/06/22 06:57:05;;;;;;;3.92;2.10;;;;;;;;;;4957829;29;20050;-82
2021/06/22 06:59:31;;;;;;;3.95;1.90;;;;;;;;;;4939711;29;20118;-81
2021/06/22 07:01:58;;;;;;;3.35;1.83;;;;;;;;;;4923910;29;20481;-80
2021/06/22 07:04:24;;;;;;;4.05;1.80;;;;;;;;;;4957368;29;20473;-80
2021/06/22 07:06:50;;;;;;;7.15;2.08;;;;;;;;;;4956806;29;20055;-81
2021/06/22 07:09:17;;;;;;;8.40;2.00;;;;;;;;;;4957314;29;20031;-82
2021/06/22 07:11:43;;;;;;;9.27;1.98;;;;;;;;;;4956674;29;20102;-81
2021/06/22 07:14:14;;;;;;;4.18;1.60;;;;;;;;;;4956670;29;20039;-82
2021/06/22 07:16:41;;;;;;;5.63;2.15;;;;;;;;;;4939427;29;20031;-82
2021/06/22 07:19:07;;;;;;;6.32;2.30;;;;;;;;;;4957153;29;20027;-81
2021/06/22 07:21:34;;;;;;;9.70;2.22;;;;;;;;;;4956523;29;20031;-82
2021/06/22 07:24:00;;;;;;;4.50;2.28;;;;;;;;;;4940017;29;20119;-82
2021/06/22 07:26:26;;;;;;;6.38;2.05;;;;;;;;;;4956496;29;20043;-82
2021/06/22 07:28:53;;;;;;;7.88;2.00;;;;;;;;;;4956979;29;20028;-82
2021/06/22 07:31:19;;;;;;;4.50;1.80;;;;;;;;;;4956647;29;20392;-82
2021/06/22 07:33:49;;;;;;;5.93;2.13;;;;;;;;;;4939096;29;20039;-82
2021/06/22 07:36:16;;;;;;;7.35;2.53;;;;;;;;;;4939226;29;20484;-82
2021/06/22 07:38:42;;;;;;;5.82;2.15;;;;;;;;;;4935542;29;20079;-82
2021/06/22 07:41:09;;;;;;;3.97;2.20;;;;;;;;;;4937016;29;20020;-82
2021/06/22 07:43:35;;;;;;;4.80;2.08;;;;;;;;;;4937508;29;20536;-81
2021/06/22 07:46:02;;;;;;;4.43;2.10;;;;;;;;;;4937513;29;20061;-82
2021/06/22 07:48:28;;;;;;;4.43;2.20;;;;;;;;;;4936916;29;20094;-82
2021/06/22 07:50:54;;;;;;;7.65;2.08;;;;;;;;;;4937412;29;20027;-82
2021/06/22 07:53:21;;;;;;;7.60;2.22;;;;;;;;;;4936674;29;20059;-82
2021/06/22 07:55:47;;;;;;;9.40;2.25;;;;;;;;;;4935620;29;20139;-81
2021/06/22 07:58:13;;;;;;;5.25;2.20;;;;;;;;;;4937327;29;20083;-80
2021/06/22 08:00:46;;;;;;;7.43;2.33;;;;;;;;;;4936761;29;20028;-80
2021/06/22 08:03:19;;;;;;;7.28;2.20;;;;;;;;;;4936239;29;20027;-82
2021/06/22 08:05:46;;;;;;;5.63;1.98;;;;;;;;;;4936910;29;20039;-81
2021/06/22 08:08:14;;;;;;;7.72;2.28;;;;;;;;;;4936604;29;20034;-82
2021/06/22 08:10:40;;;;;;;6.35;2.30;;;;;;;;;;4935310;29;20047;-82
2021/06/22 08:13:07;;;;;;;6.45;2.15;;;;;;;;;;4936477;29;20112;-82
2021/06/22 08:15:34;;;;;;;5.65;2.58;;;;;;;;;;4937067;29;20031;-81
2021/06/22 08:18:00;;;;;;;5.80;2.38;;;;;;;;;;4937283;29;20024;-82
2021/06/22 08:20:27;;;;;;;6.78;2.63;;;;;;;;;;4935219;29;20032;-82
2021/06/22 08:22:54;;;;;;;3.60;1.80;;;;;;;;;;4936373;29;20016;-82
2021/06/22 08:25:23;;;;;;;12.60;2.90;;;;;;;;;;4936939;29;20114;-82
2021/06/22 08:27:50;;;;;;;5.93;2.40;;;;;;;;;;4935120;29;20114;-82
2021/06/22 08:30:18;;;;;;;4.75;2.63;;;;;;;;;;4935910;29;20031;-82
2021/06/22 08:32:44;;;;;;;6.30;2.67;;;;;;;;;;4936241;29;20083;-82
2021/06/22 08:35:11;;;;;;;6.97;2.78;;;;;;;;;;4936262;29;20036;-81
2021/06/22 08:37:37;;;;;;;12.45;3.17;;;;;;;;;;4936205;29;20103;-81
2021/06/22 08:40:05;;;;;;;9.77;3.00;;;;;;;;;;4955333;29;20050;-82
2021/06/22 08:42:32;;;;;;;6.78;3.15;;;;;;;;;;4938158;29;20027;-81
2021/06/22 08:44:59;;;;;;;8.50;2.80;;;;;;;;;;4955308;29;20556;-82
2021/06/22 08:47:27;;;;;;;4.60;2.78;;;;;;;;;;4955288;29;20054;-81
2021/06/22 08:49:56;;;;;;;5.93;2.47;;;;;;;;;;4955242;29;20027;-81
2021/06/22 08:52:35;;;;;;;7.13;3.72;;;;;;;;;;4955731;29;20062;-80
2021/06/22 08:55:01;;;;;;;7.38;2.67;;;;;;;;;;4955738;29;20102;-81
2021/06/22 08:57:28;;;;;;;5.40;3.63;;;;;;;;;;4955685;29;20357;-82
2021/06/22 08:59:54;;;;;;;6.70;3.30;;;;;;;;;;4955193;29;20086;-81
2021/06/22 09:02:25;;;;;;;9.65;4.38;;;;;;;;;;4955186;29;20026;-82
2021/06/22 09:04:55;;;;;;;8.98;3.63;;;;;;;;;;4938027;29;20040;-81
2021/06/22 09:07:40;;;;;;;8.13;3.58;;;;;;;;;;4955660;29;20046;-81
2021/06/22 09:10:07;;;;;;;10.77;4.50;;;;;;;;;;4955060;29;20111;-79
2021/06/22 09:12:33;;;;;;;7.57;4.13;;;;;;;;;;4937787;29;20500;-79
2021/06/22 09:14:59;;;;;;;10.15;4.18;;;;;;;;;;4956424;28;20114;-79
2021/06/22 09:17:35;;;;;;;7.47;3.88;;;;;;;;;;4941633;29;20023;-80
2021/06/22 09:20:01;;;;;;;8.73;4.18;;;;;;;;;;4941790;29;20560;-81
2021/06/22 09:22:28;;;;;;;8.00;4.63;;;;;;;;;;4958773;29;20472;-79
2021/06/22 09:25:01;;;;;;;8.57;5.07;;;;;;;;;;4941324;29;20034;-81
2021/06/22 09:27:47;;;;;;;7.95;4.70;;;;;;;;;;4941424;29;20066;-81
2021/06/22 09:30:13;;;;;;;9.60;4.90;;;;;;;;;;4941349;29;20114;-80
2021/06/22 09:32:41;;;;;;;7.30;4.65;;;;;;;;;;4941222;29;20023;-81
2021/06/22 09:35:20;;;;;;;9.63;4.35;;;;;;;;;;4941250;29;20388;-80
2021/06/22 09:37:56;;;;;;;8.52;4.60;;;;;;;;;;4941077;29;20110;-78
2021/06/22 09:40:29;;;;;;;11.00;4.60;;;;;;;;;;4958960;29;20122;-79
2021/06/22 09:42:56;;;;;;;6.32;4.68;;;;;;;;;;4941115;29;20423;-80
2021/06/22 09:45:22;;;;;;;8.90;4.22;;;;;;;;;;4941055;29;20110;-79
2021/06/22 09:47:49;;;;;;;6.78;4.25;;;;;;;;;;4941041;29;20116;-80
2021/06/22 09:50:34;;;;;;;5.82;4.03;;;;;;;;;;4940966;29;20062;-80
2021/06/22 09:53:19;;;;;;;7.22;3.55;;;;;;;;;;4940813;29;20027;-80
2021/06/22 09:55:45;;;;;;;8.25;3.78;;;;;;;;;;4940906;29;20046;-79
2021/06/22 09:58:13;;;;;;;5.05;3.42;;;;;;;;;;4958197;29;20023;-80
2021/06/22 10:00:39;;;;;;;5.85;3.47;;;;;;;;;;4958046;29;20043;-80
2021/06/22 10:03:05;;;;;;;9.45;3.42;;;;;;;;;;4958014;29;20067;-81
2021/06/22 10:05:50;;;;;;;8.63;3.40;;;;;;;;;;4940670;29;20374;-81
2021/06/22 10:08:16;;;;;;;13.65;3.70;;;;;;;;;;4958502;29;20023;-81
2021/06/22 10:10:43;;;;;;;9.70;3.38;;;;;;;;;;4957865;29;20034;-81
2021/06/22 10:13:09;;;;;;;7.18;3.63;;;;;;;;;;4957734;29;20373;-81
2021/06/22 10:15:36;;;;;;;6.85;3.42;;;;;;;;;;4940470;29;20031;-82
2021/06/22 10:18:02;;;;;;;6.07;3.25;;;;;;;;;;4940563;29;20071;-83
2021/06/22 10:20:28;;;;;;;5.57;3.50;;;;;;;;;;4957789;29;20031;-79
2021/06/22 10:22:55;;;;;;;5.78;3.60;;;;;;;;;;4958018;29;20139;-81
2021/06/22 10:25:21;;;;;;;8.40;3.40;;;;;;;;;;4957661;28;20110;-80
2021/06/22 10:27:51;;;;;;;7.25;3.97;;;;;;;;;;4940321;29;20493;-79
2021/06/22 10:30:20;;;;;;;5.38;3.38;;;;;;;;;;4940323;29;20522;-80
2021/06/22 10:32:46;;;;;;;8.48;3.50;;;;;;;;;;4957359;29;20031;-79
2021/06/22 10:35:13;;;;;;;7.78;3.70;;;;;;;;;;4957900;29;20063;-80
2021/06/22 10:37:39;;;;;;;9.73;3.70;;;;;;;;;;4940016;29;20078;-78
2021/06/22 10:40:09;;;;;;;8.52;3.72;;;;;;;;;;4940061;29;20038;-79
2021/06/22 10:42:43;;;;;;;5.88;3.60;;;;;;;;;;4939966;29;20074;-79
2021/06/22 10:45:09;;;;;;;7.82;4.05;;;;;;;;;;4939798;29;20046;-79
2021/06/22 10:47:39;;;;;;;7.80;3.90;;;;;;;;;;4939887;29;20058;-79
2021/06/22 10:50:14;;;;;;;14.43;4.47;;;;;;;;;;4936620;29;20039;-80
2021/06/22 10:52:43;;;;;;;8.25;3.88;;;;;;;;;;4956866;29;20062;-79
2021/06/22 10:55:18;;;;;;;5.78;3.22;;;;;;;;;;4939718;29;20031;-79
2021/06/22 10:58:06;;;;;;;8.70;3.90;;;;;;;;;;4957173;29;20504;-79
2021/06/22 11:00:38;;;;;;;7.90;3.92;;;;;;;;;;4956682;29;20023;-78
2021/06/22 11:03:06;;;;;;;7.63;4.40;;;;;;;;;;4939621;29;20098;-78
2021/06/22 11:05:34;;;;;;;8.50;4.18;;;;;;;;;;4939426;29;20031;-81
2021/06/22 11:08:09;;;;;;;7.40;4.45;;;;;;;;;;4956621;29;20031;-78
2021/06/22 11:10:36;;;;;;;8.82;4.30;;;;;;;;;;4939238;29;20543;-78
2021/06/22 11:13:03;;;;;;;12.48;4.18;;;;;;;;;;4939302;29;20043;-79
2021/06/22 11:15:45;;;;;;;9.43;4.53;;;;;;;;;;4939318;29;20038;-82
2021/06/22 11:18:16;;;;;;;;;;;;;;;;;;4939712;29;20114;-80
2021/06/22 11:20:43;;;;;;;19.25;4.20;;;;;;;;;;4956355;29;20279;-82
2021/06/22 11:23:10;;;;;;;6.95;3.95;;;;;;;;;;4939144;29;20555;-81
2021/06/22 11:25:47;;;;;;;7.75;4.13;;;;;;;;;;4939178;29;20078;-81
2021/06/22 11:28:13;;;;;;;11.82;4.45;;;;;;;;;;4939043;29;20035;-80
2021/06/22 11:30:55;;;;;;;11.73;4.45;;;;;;;;;;4939046;29;20027;-82
2021/06/22 11:33:30;;;;;;;6.97;3.80;;;;;;;;;;4956290;29;20462;-80
2021/06/22 11:36:16;;;;;;;7.78;4.35;;;;;;;;;;4938897;29;20480;-79
2021/06/22 11:38:44;;;;;;;7.57;3.92;;;;;;;;;;4922176;29;20492;-78
2021/06/22 11:41:14;;;;;;;19.98;3.97;;;;;;;;;;4938854;29;20031;-80
2021/06/22 11:43:58;;;;;;;11.10;4.05;;;;;;;;;;4938532;29;20085;-79
2021/06/22 11:46:31;;;;;;;8.75;4.18;;;;;;;;;;4955911;29;20059;-79
2021/06/22 11:48:57;;;;;;;;;;;;;;;;;;4956427;29;20026;-79
2021/06/22 11:51:42;;;;;;;10.20;3.88;;;;;;;;;;4927160;29;19993;-79
2021/06/22 11:54:08;;;;;;;6.25;3.78;;;;;;;;;;4945987;29;20071;-78
2021/06/22 11:56:34;;;;;;;10.60;4.00;;;;;;;;;;4944086;29;20406;-80
2021/06/22 11:59:01;;;;;;;10.35;4.03;;;;;;;;;;4944929;29;20476;-80
2021/06/22 12:01:27;;;;;;;8.48;3.85;;;;;;;;;;4938817;29;20028;-79
2021/06/22 12:03:54;;;;;;;15.73;4.18;;;;;;;;;;4919514;29;20034;-78
2021/06/22 12:06:24;;;;;;;21.60;4.57;;;;;;;;;;4931433;29;20031;-79
2021/06/22 12:08:51;;;;;;;9.73;4.22;;;;;;;;;;4936864;29;20054;-80
2021/06/22 12:11:30;;;;;;;9.82;4.20;;;;;;;;;;4938346;29;20028;-79
2021/06/22 12:13:57;;;;;;;11.15;4.60;;;;;;;;;;4938186;29;20035;-79
2021/06/22 12:16:33;;;;;;;13.32;4.40;;;;;;;;;;4938356;29;20031;-78
2021/06/22 12:19:01;;;;;;;8.07;4.47;;;;;;;;;;4938345;29;20027;-79
2021/06/22 12:21:28;;;;;;;9.38;4.75;;;;;;;;;;4955443;29;20074;-80
2021/06/22 12:24:10;;;;;;;11.48;4.15;;;;;;;;;;4938208;29;20043;-80
2021/06/22 12:26:38;;;;;;;12.90;4.53;;;;;;;;;;4938162;29;20023;-80
2021/06/22 12:29:15;;;;;;;12.88;4.90;;;;;;;;;;4938063;29;20354;-79
2021/06/22 12:31:48;;;;;;;7.97;4.38;;;;;;;;;;4955356;29;20038;-79
2021/06/22 12:34:14;;;;;;;10.90;4.10;;;;;;;;;;4938133;29;20035;-80
2021/06/22 12:36:40;;;;;;;11.85;4.65;;;;;;;;;;4938069;29;20027;-79
2021/06/22 12:39:06;;;;;;;15.20;4.50;;;;;;;;;;4937873;29;20509;-80
2021/06/22 12:41:32;;;;;;;11.52;4.93;;;;;;;;;;4938131;29;20027;-79
2021/06/22 12:44:03;;;;;;;15.60;4.53;;;;;;;;;;4955311;29;20028;-78
2021/06/22 12:46:29;;;;;;;14.15;4.43;;;;;;;;;;4938230;29;20496;-79
2021/06/22 12:49:04;;;;;;;12.55;4.72;;;;;;;;;;4956759;28;20031;-78
2021/06/22 12:51:49;;;;;;;9.23;5.18;;;;;;;;;;4941882;29;20023;-79
2021/06/22 12:54:15;;;;;;;12.35;4.93;;;;;;;;;;4941853;29;20039;-79
2021/06/22 12:57:08;;;;;;;12.98;4.30;;;;;;;;;;4959103;29;20033;-79
2021/06/22 12:59:48;;;;;;;13.57;5.22;;;;;;;;;;4906176;29;20090;-82
2021/06/22 13:02:14;;;;;;;10.43;4.70;;;;;;;;;;4941741;29;20472;-80
2021/06/22 13:04:42;;;;;;;12.63;4.70;;;;;;;;;;4941757;29;20031;-80
2021/06/22 13:07:09;;;;;;;12.23;4.55;;;;;;;;;;4941641;29;20055;-81
2021/06/22 13:09:39;;;;;;;12.88;4.65;;;;;;;;;;4941723;29;20034;-82
2021/06/22 13:12:15;;;;;;;9.18;4.50;;;;;;;;;;4941632;29;20054;-82
2021/06/22 13:14:43;;;;;;;11.57;4.78;;;;;;;;;;4959001;29;20045;-78
2021/06/22 13:17:10;;;;;;;11.10;5.07;;;;;;;;;;4958740;29;20023;-79
2021/06/22 13:19:55;;;;;;;11.60;4.60;;;;;;;;;;4941333;29;20063;-80
2021/06/22 13:22:28;;;;;;;12.63;5.40;;;;;;;;;;4941541;29;20384;-78
2021/06/22 13:24:56;;;;;;;7.72;5.10;;;;;;;;;;4960664;29;20090;-79
2021/06/22 13:27:33;;;;;;;14.73;5.88;;;;;;;;;;4959092;29;20030;-78
2021/06/22 13:30:08;;;;;;;15.90;5.45;;;;;;;;;;4941208;29;20031;-78
2021/06/22 13:32:34;;;;;;;10.88;5.15;;;;;;;;;;4958787;29;20031;-79
2021/06/22 13:35:04;;;;;;;12.82;5.68;;;;;;;;;;4941175;29;20146;-80
2021/06/22 13:37:30;;;;;;;11.35;5.40;;;;;;;;;;4958294;29;20055;-79
2021/06/22 13:39:59;;;;;;;11.35;5.45;;;;;;;;;;4940992;29;20138;-81
2021/06/22 13:42:26;;;;;;;10.55;6.07;;;;;;;;;;4941023;29;20114;-79
2021/06/22 13:44:53;;;;;;;9.93;4.93;;;;;;;;;;4941050;29;20544;-80
2021/06/22 13:47:43;;;;;;;12.75;5.20;;;;;;;;;;4958175;29;20027;-81
2021/06/22 13:50:35;;;;;;;11.02;5.22;;;;;;;;;;4940916;29;20496;-79
2021/06/22 13:53:03;;;;;;;14.23;5.25;;;;;;;;;;4936793;29;20039;-81
2021/06/22 13:55:40;;;;;;;14.75;5.20;;;;;;;;;;4959135;29;20503;-81
2021/06/22 13:58:10;;;;;;;11.35;4.75;;;;;;;;;;4958047;29;20020;-83
2021/06/22 14:00:37;;;;;;;9.05;4.68;;;;;;;;;;4939870;29;20028;-80
2021/06/22 14:03:04;;;;;;;12.60;5.05;;;;;;;;;;4940691;29;20503;-79
2021/06/22 14:05:31;;;;;;;12.40;5.40;;;;;;;;;;4940496;29;20042;-79
2021/06/22 14:07:58;;;;;;;14.90;5.22;;;;;;;;;;4940605;29;20110;-80
2021/06/22 14:10:25;;;;;;;14.77;5.97;;;;;;;;;;4940571;29;20194;-81
2021/06/22 14:12:51;;;;;;;18.60;5.55;;;;;;;;;;4940330;29;20381;-81
2021/06/22 14:15:18;;;;;;;11.68;5.22;;;;;;;;;;4940520;29;20489;-82
2021/06/22 14:17:46;;;;;;;13.38;5.38;;;;;;;;;;4933671;29;20134;-80
2021/06/22 14:20:12;;;;;;;11.07;5.45;;;;;;;;;;4926288;29;20027;-80
2021/06/22 14:22:39;;;;;;;8.32;5.13;;;;;;;;;;4921702;29;20035;-80
2021/06/22 14:25:06;;;;;;;13.40;5.43;;;;;;;;;;4940178;29;20074;-80
2021/06/22 14:27:32;;;;;;;18.65;6.47;;;;;;;;;;4940145;29;20027;-79
2021/06/22 14:29:58;;;;;;;15.15;5.30;;;;;;;;;;4940223;29;20078;-80
2021/06/22 14:32:24;;;;;;;9.15;4.90;;;;;;;;;;4940151;29;20035;-80
2021/06/22 14:34:50;;;;;;;13.80;4.95;;;;;;;;;;4940036;29;20039;-81
2021/06/22 14:37:17;;;;;;;10.93;5.20;;;;;;;;;;4957336;29;20055;-79
2021/06/22 14:39:43;;;;;;;12.98;4.38;;;;;;;;;;4936616;29;20047;-80
2021/06/22 14:42:09;;;;;;;11.38;5.00;;;;;;;;;;4936735;29;20118;-80
2021/06/22 14:44:35;;;;;;;15.60;5.00;;;;;;;;;;4936692;29;20404;-81
2021/06/22 14:47:01;;;;;;;15.68;5.85;;;;;;;;;;4936685;29;20079;-81